Time;durP1;ratioP1;P1;durP2;ratioP2;P2;SDS_P1;SDS_P2;PMS_P1;PMS_P2;Temp;Humidity;BMP_temperature;BMP_pressure;BME280_temperature;BME280_humidity;BME280_pressure;Samples;Min_cycle;Max_cycle;Signal;HPM_P1;HPM_P2
2023/03/12 00:01:43;;;;;;;;;21.67;21.67;;;;;10.86;100.00;100623.47;5080531;27;45303;-77
2023/03/12 00:04:08;;;;;;;;;24.33;24.33;;;;;10.85;100.00;100624.47;5061585;28;53340;-78
2023/03/12 00:06:33;;;;;;;;;28.00;24.00;;;;;10.96;100.00;100639.19;5079678;28;55261;-77
2023/03/12 00:09:00;;;;;;;;;23.33;23.33;;;;;10.96;100.00;100645.31;5079726;28;51568;-78
2023/03/12 00:11:27;;;;;;;;;29.33;27.67;;;;;10.96;100.00;100642.66;5079359;28;45329;-77
2023/03/12 00:13:55;;;;;;;;;25.00;23.67;;;;;10.89;100.00;100631.06;5078520;28;46497;-77
2023/03/12 00:16:21;;;;;;;;;27.33;25.67;;;;;10.93;100.00;100643.00;5078717;28;46343;-76
2023/03/12 00:18:49;;;;;;;;;29.00;26.33;;;;;10.92;100.00;100636.03;5079336;27;45336;-77
2023/03/12 00:21:15;;;;;;;;;28.00;27.00;;;;;10.90;100.00;100631.91;5078365;28;45287;-77
2023/03/12 00:23:40;;;;;;;;;23.00;21.00;;;;;10.94;100.00;100636.69;5078515;27;46178;-77
2023/03/12 00:26:08;;;;;;;;;24.33;23.33;;;;;10.95;100.00;100648.13;5079898;27;46090;-77
2023/03/12 00:28:34;;;;;;;;;28.00;24.67;;;;;10.93;100.00;100648.31;5080061;27;45322;-76
2023/03/12 00:31:00;;;;;;;;;23.00;23.00;;;;;10.92;100.00;100649.34;5078437;28;45394;-77
2023/03/12 00:33:28;;;;;;;;;24.00;22.33;;;;;10.95;100.00;100648.97;5077864;28;46189;-77
2023/03/12 00:35:54;;;;;;;;;32.67;29.00;;;;;10.97;100.00;100643.47;5079390;27;45431;-77
2023/03/12 00:38:19;;;;;;;;;26.67;22.33;;;;;10.92;100.00;100632.56;5092026;27;45293;-76
2023/03/12 00:40:44;;;;;;;;;21.33;21.33;;;;;10.95;100.00;100632.19;5080088;27;45255;-77
2023/03/12 00:43:10;;;;;;;;;21.00;21.00;;;;;11.02;100.00;100632.31;5079762;27;46346;-77
2023/03/12 00:45:35;;;;;;;;;23.67;21.67;;;;;11.04;100.00;100628.47;5079590;27;46598;-77
2023/03/12 00:48:01;;;;;;;;;22.33;19.33;;;;;11.14;100.00;100635.38;5079859;27;45345;-77
2023/03/12 00:50:26;;;;;;;;;23.00;23.00;;;;;11.20;100.00;100638.13;5078309;28;45350;-77
2023/03/12 00:52:51;;;;;;;;;22.00;19.67;;;;;11.22;100.00;100629.94;5079559;28;45278;-77
2023/03/12 00:55:17;;;;;;;;;21.67;21.00;;;;;11.29;100.00;100630.06;5078088;28;47909;-77
2023/03/12 00:57:42;;;;;;;;;24.67;23.00;;;;;11.34;100.00;100631.16;5079287;27;45196;-77
2023/03/12 01:00:10;;;;;;;;;22.00;20.33;;;;;11.31;100.00;100620.09;5078475;28;45727;-77
2023/03/12 01:02:37;;;;;;;;;26.00;24.00;;;;;11.31;100.00;100620.09;5079289;27;45476;-77
2023/03/12 01:05:03;;;;;;;;;24.00;23.33;;;;;11.35;100.00;100640.78;5078207;27;48225;-77
2023/03/12 01:07:28;;;;;;;;;26.33;22.67;;;;;11.27;100.00;100645.38;5077760;28;45330;-77
2023/03/12 01:09:54;;;;;;;;;26.67;24.33;;;;;11.21;100.00;100647.78;5079559;27;45328;-76
2023/03/12 01:12:19;;;;;;;;;22.33;22.33;;;;;11.28;100.00;100650.50;5077915;28;53157;-77
2023/03/12 01:14:44;;;;;;;;;25.33;23.33;;;;;11.31;100.00;100657.34;5079233;28;49270;-77
2023/03/12 01:17:10;;;;;;;;;21.67;20.67;;;;;11.30;100.00;100639.69;5079259;28;45292;-76
2023/03/12 01:19:35;;;;;;;;;27.67;26.67;;;;;11.36;100.00;100660.25;5079598;27;45128;-77
2023/03/12 01:22:00;;;;;;;;;24.33;23.33;;;;;11.40;100.00;100652.75;5078554;28;53640;-77
2023/03/12 01:24:26;;;;;;;;;26.33;25.33;;;;;11.35;100.00;100647.97;5078995;28;46313;-76
2023/03/12 01:26:51;;;;;;;;;26.33;25.00;;;;;11.32;100.00;100653.66;5079006;27;45184;-77
2023/03/12 01:29:16;;;;;;;;;28.67;26.33;;;;;11.36;100.00;100653.13;5079356;28;45476;-76
2023/03/12 01:31:42;;;;;;;;;23.67;22.33;;;;;11.34;100.00;100662.25;5078524;27;45387;-76
2023/03/12 01:34:10;;;;;;;;;16.33;15.33;;;;;11.40;100.00;100661.53;5077112;28;59640;-77
2023/03/12 01:36:35;;;;;;;;;26.00;24.33;;;;;11.34;100.00;100654.28;5078222;27;45370;-76
2023/03/12 01:39:01;;;;;;;;;26.00;25.67;;;;;11.37;100.00;100661.91;5079162;28;45395;-76
2023/03/12 01:41:28;;;;;;;;;27.00;21.00;;;;;11.45;100.00;100650.34;5078762;27;45508;-76
2023/03/12 01:43:54;;;;;;;;;20.33;20.00;;;;;11.38;100.00;100652.94;5077579;28;47300;-77
2023/03/12 01:46:32;;;;;;;;;26.33;24.67;;;;;11.42;100.00;100646.22;5080996;28;45255;-77
2023/03/12 01:49:16;;;;;;;;;24.00;21.33;;;;;11.44;100.00;100654.84;5082423;27;45268;-77
2023/03/12 01:51:56;;;;;;;;;21.33;21.00;;;;;11.48;100.00;100653.50;5082122;27;45559;-77
2023/03/12 01:54:29;;;;;;;;;18.33;16.33;;;;;11.46;100.00;100644.84;5082344;27;45360;-76
2023/03/12 01:56:55;;;;;;;;;19.67;19.00;;;;;11.45;100.00;100643.22;5080805;28;45458;-76
2023/03/12 01:59:44;;;;;;;;;20.00;18.67;;;;;11.44;100.00;100632.75;5081046;28;45382;-76
2023/03/12 02:02:11;;;;;;;;;23.33;18.67;;;;;11.55;100.00;100642.94;5081848;27;45367;-77
2023/03/12 02:04:37;;;;;;;;;18.33;16.00;;;;;11.52;100.00;100637.16;5080829;28;47364;-76
2023/03/12 02:07:08;;;;;;;;;16.33;15.33;;;;;11.53;100.00;100631.66;5081455;28;45353;-76
2023/03/12 02:09:37;;;;;;;;;20.33;18.00;;;;;11.54;100.00;100637.78;5082627;27;45296;-76
2023/03/12 02:12:03;;;;;;;;;15.00;14.00;;;;;11.47;100.00;100635.84;5080750;28;46278;-76
2023/03/12 02:14:29;;;;;;;;;20.00;19.00;;;;;11.49;100.00;100643.66;5082183;27;46464;-76
2023/03/12 02:16:55;;;;;;;;;25.00;20.67;;;;;11.44;100.00;100636.22;5080536;28;45782;-77
2023/03/12 02:19:44;;;;;;;;;18.00;16.67;;;;;11.39;100.00;100637.78;5082561;27;45247;-76
2023/03/12 02:22:12;;;;;;;;;19.33;17.00;;;;;11.31;100.00;100630.72;5080114;28;46248;-76
2023/03/12 02:24:45;;;;;;;;;18.67;17.67;;;;;11.34;100.00;100630.34;5081509;27;45853;-76
2023/03/12 02:27:11;;;;;;;;;22.00;22.00;;;;;11.26;100.00;100643.72;5081734;27;45212;-77
2023/03/12 02:29:39;;;;;;;;;21.67;21.67;;;;;11.24;100.00;100646.56;5080118;27;45423;-76
2023/03/12 02:32:06;;;;;;;;;22.00;17.67;;;;;11.28;100.00;100652.38;5070659;28;45479;-76
2023/03/12 02:34:31;;;;;;;;;24.33;20.00;;;;;11.21;100.00;100646.94;5081625;27;45383;-76
2023/03/12 02:36:56;;;;;;;;;23.00;18.33;;;;;11.17;100.00;100646.47;5080829;27;45341;-76
2023/03/12 02:39:22;;;;;;;;;20.67;20.00;;;;;11.09;100.00;100628.75;5081254;27;45389;-76
2023/03/12 02:41:52;;;;;;;;;20.67;19.33;;;;;11.13;100.00;100639.03;5081570;27;45597;-76
2023/03/12 02:44:30;;;;;;;;;22.00;19.67;;;;;11.15;100.00;100648.47;5081599;28;45424;-76
2023/03/12 02:46:57;;;;;;;;;25.67;23.33;;;;;11.12;100.00;100654.16;5081666;27;45342;-76
2023/03/12 02:49:26;;;;;;;;;19.00;17.00;;;;;11.10;100.00;100656.16;5081539;27;45400;-77
2023/03/12 02:51:52;;;;;;;;;23.00;19.00;;;;;11.10;100.00;100659.66;5070113;27;45509;-76
2023/03/12 02:54:19;;;;;;;;;17.67;14.67;;;;;11.06;100.00;100657.53;5077832;28;48555;-77
2023/03/12 02:56:44;;;;;;;;;19.00;16.67;;;;;11.06;100.00;100657.53;5081041;27;45434;-77
2023/03/12 02:59:12;;;;;;;;;13.67;13.67;;;;;11.07;100.00;100656.53;5080060;28;45454;-77
2023/03/12 03:01:37;;;;;;;;;18.67;15.00;;;;;11.02;100.00;100646.44;5081621;27;45488;-76
2023/03/12 03:04:05;;;;;;;;;17.00;16.67;;;;;11.05;100.00;100645.25;5081125;27;45364;-76
2023/03/12 03:06:31;;;;;;;;;16.67;16.33;;;;;11.10;100.00;100646.34;5081210;28;45665;-77
2023/03/12 03:08:57;;;;;;;;;19.33;18.33;;;;;11.10;100.00;100656.16;5081315;27;45195;-77
2023/03/12 03:11:25;;;;;;;;;18.67;15.00;;;;;11.10;100.00;100654.34;5081184;27;45535;-77
2023/03/12 03:13:51;;;;;;;;;16.33;15.00;;;;;11.13;100.00;100655.81;5080991;27;46025;-77
2023/03/12 03:16:16;;;;;;;;;21.00;19.00;;;;;11.10;100.00;100649.03;5081005;27;45394;-78
2023/03/12 03:18:41;;;;;;;;;21.00;19.00;;;;;11.17;100.00;100664.25;5079892;27;45386;-76
2023/03/12 03:21:08;;;;;;;;;23.67;20.67;;;;;11.26;100.00;100667.69;5080711;27;45665;-76
2023/03/12 03:23:34;;;;;;;;;13.33;12.00;;;;;11.22;100.00;100656.56;5080648;27;46040;-76
2023/03/12 03:26:00;;;;;;;;;19.00;14.67;;;;;11.25;100.00;100661.50;5081133;27;45326;-77
2023/03/12 03:28:28;;;;;;;;;13.00;8.67;;;;;11.31;100.00;100673.28;5079467;28;45365;-77
2023/03/12 03:31:00;;;;;;;;;15.00;15.00;;;;;11.36;100.00;100670.91;5080782;27;45318;-76
2023/03/12 03:33:27;;;;;;;;;15.33;14.33;;;;;11.35;100.00;100674.59;5080551;27;45333;-77
2023/03/12 03:35:54;;;;;;;;;15.33;13.33;;;;;11.36;100.00;100665.56;5080319;28;45470;-77
2023/03/12 03:38:22;;;;;;;;;18.00;15.67;;;;;11.42;100.00;100675.50;5080855;27;45492;-76
2023/03/12 03:40:47;;;;;;;;;17.33;14.33;;;;;11.42;100.00;100672.00;5078696;28;47471;-77
2023/03/12 03:43:13;;;;;;;;;13.67;12.67;;;;;11.44;100.00;100685.97;5079373;28;47018;-76
2023/03/12 03:45:38;;;;;;;;;18.67;16.33;;;;;11.43;100.00;100687.78;5080589;27;45885;-76
2023/03/12 03:48:04;;;;;;;;;21.67;15.67;;;;;11.42;100.00;100688.81;5080768;28;45279;-75
2023/03/12 03:50:29;;;;;;;;;20.00;14.67;;;;;11.46;100.00;100687.44;5080075;28;45394;-76
2023/03/12 03:52:54;;;;;;;;;17.67;17.00;;;;;11.49;100.00;100695.06;5079069;27;48024;-77
2023/03/12 03:55:20;;;;;;;;;14.33;13.00;;;;;11.53;100.00;100700.84;5079394;28;45418;-76
2023/03/12 03:57:45;;;;;;;;;17.33;14.00;;;;;11.49;100.00;100696.88;5080351;27;45471;-76
2023/03/12 04:00:12;;;;;;;;;17.00;14.67;;;;;11.51;100.00;100697.53;5080497;28;46686;-76
2023/03/12 04:02:38;;;;;;;;;13.67;13.00;;;;;11.45;100.00;100693.78;5078533;28;47379;-77
2023/03/12 04:05:03;;;;;;;;;14.67;10.33;;;;;11.41;100.00;100702.28;5080274;27;45341;-76
2023/03/12 04:07:29;;;;;;;;;11.67;11.67;;;;;11.38;100.00;100697.34;5079158;27;45409;-77
2023/03/12 04:09:56;;;;;;;;;13.00;13.00;;;;;11.32;100.00;100691.72;5080212;28;45271;-77
2023/03/12 04:12:24;;;;;;;;;16.00;12.00;;;;;11.30;100.00;100693.75;5078799;28;47140;-76
2023/03/12 04:14:50;;;;;;;;;12.00;11.00;;;;;11.35;100.00;100715.31;5096108;27;45781;-76
2023/03/12 04:17:15;;;;;;;;;7.67;7.00;;;;;11.32;100.00;100714.84;5079911;27;45607;-76
2023/03/12 04:19:40;;;;;;;;;11.67;10.33;;;;;11.27;100.00;100718.03;5080266;28;47790;-77
2023/03/12 04:22:05;;;;;;;;;12.00;9.00;;;;;11.29;100.00;100728.50;5079500;28;45276;-76
2023/03/12 04:24:31;;;;;;;;;11.00;11.00;;;;;11.28;100.00;100732.19;5080048;28;50099;-75
2023/03/12 04:26:57;;;;;;;;;10.00;9.67;;;;;11.36;100.00;100745.41;5079031;28;45527;-76
2023/03/12 04:29:23;;;;;;;;;10.00;7.67;;;;;11.38;100.00;100740.75;5079955;27;45251;-77
2023/03/12 04:31:48;;;;;;;;;12.33;10.67;;;;;11.37;100.00;100741.72;5077979;28;47227;-77
2023/03/12 04:34:14;;;;;;;;;8.67;8.00;;;;;11.36;100.00;100742.75;5078883;28;45782;-76
2023/03/12 04:36:39;;;;;;;;;14.00;13.00;;;;;11.33;100.00;100746.59;5079655;28;45451;-76
2023/03/12 04:39:08;;;;;;;;;10.67;9.67;;;;;11.38;100.00;100751.38;5078599;28;47038;-77
2023/03/12 04:41:34;;;;;;;;;8.67;7.00;;;;;11.38;100.00;100755.88;5079324;27;45537;-76
2023/03/12 04:43:59;;;;;;;;;10.00;9.00;;;;;11.36;100.00;100766.69;5079772;27;45298;-76
2023/03/12 04:46:25;;;;;;;;;8.67;7.67;;;;;11.33;100.00;100767.88;5079432;28;45211;-76
2023/03/12 04:48:50;;;;;;;;;8.67;7.67;;;;;11.32;100.00;100784.03;5078661;28;46005;-76
2023/03/12 04:51:16;;;;;;;;;7.00;7.00;;;;;11.35;100.00;100786.34;5079068;28;49844;-77
2023/03/12 04:53:41;;;;;;;;;10.00;8.67;;;;;11.34;100.00;100784.66;5079518;27;45248;-76
2023/03/12 04:56:07;;;;;;;;;9.67;7.67;;;;;11.43;100.00;100796.91;5079622;27;45537;-76
2023/03/12 04:58:32;;;;;;;;;11.33;8.00;;;;;11.52;100.00;100802.19;5078239;28;46995;-76
2023/03/12 05:00:57;;;;;;;;;10.00;7.33;;;;;11.57;100.00;100805.13;5079543;27;46119;-76
2023/03/12 05:03:23;;;;;;;;;10.33;7.67;;;;;11.59;100.00;100797.78;5079577;27;45384;-76
2023/03/12 05:05:48;;;;;;;;;9.00;8.00;;;;;11.58;100.00;100790.78;5079338;27;45194;-76
2023/03/12 05:08:13;;;;;;;;;6.67;6.67;;;;;11.66;100.00;100808.53;5078024;28;46069;-76
2023/03/12 05:10:39;;;;;;;;;6.67;5.33;;;;;11.52;100.00;100787.00;5079419;27;45341;-77
2023/03/12 05:13:16;;;;;;;;;6.67;6.00;;;;;11.64;100.00;100791.94;5079564;27;45411;-76
2023/03/12 05:15:42;;;;;;;;;6.00;4.67;;;;;11.66;100.00;100798.72;5079720;27;45320;-76
2023/03/12 05:18:07;;;;;;;;;6.00;6.00;;;;;11.61;100.00;100801.91;5079138;27;45390;-76
2023/03/12 05:20:32;;;;;;;;;9.67;8.33;;;;;11.61;100.00;100801.91;5077395;28;46268;-77
2023/03/12 05:22:58;;;;;;;;;7.00;6.00;;;;;11.62;100.00;100800.91;5077478;28;51885;-76
2023/03/12 05:25:23;;;;;;;;;7.67;7.00;;;;;11.61;100.00;100806.41;5078307;27;47575;-76
2023/03/12 05:27:48;;;;;;;;;9.67;8.00;;;;;11.63;100.00;100823.03;5079317;28;45436;-75
2023/03/12 05:30:14;;;;;;;;;11.00;8.67;;;;;11.68;100.00;100822.50;5079117;27;46545;-76
2023/03/12 05:32:39;;;;;;;;;8.33;7.33;;;;;11.61;100.00;100830.34;5077573;28;45251;-76
2023/03/12 05:35:05;;;;;;;;;5.67;5.00;;;;;11.61;100.00;100809.91;5079402;28;45276;-76
2023/03/12 05:37:30;;;;;;;;;8.33;4.33;;;;;11.74;100.00;100835.91;5078563;28;45425;-77
2023/03/12 05:39:55;;;;;;;;;7.00;7.00;;;;;11.71;100.00;100832.78;5078854;28;52590;-75
2023/03/12 05:42:23;;;;;;;;;7.33;7.00;;;;;11.76;100.00;100832.25;5077410;28;59276;-76
2023/03/12 05:44:50;;;;;;;;;6.00;6.00;;;;;11.79;100.00;100839.88;5079359;28;45452;-76
2023/03/12 05:47:15;;;;;;;;;9.33;6.67;;;;;11.74;100.00;100830.59;5078911;27;45425;-76
2023/03/12 05:49:41;;;;;;;;;8.00;6.67;;;;;11.75;100.00;100839.41;5078778;28;46054;-76
2023/03/12 05:52:06;;;;;;;;;8.00;8.00;;;;;11.74;100.00;100838.56;5077364;28;45685;-76
2023/03/12 05:54:32;;;;;;;;;9.00;8.67;;;;;11.78;100.00;100851.53;5079096;27;45567;-76
2023/03/12 05:56:57;;;;;;;;;7.00;6.00;;;;;11.81;100.00;100838.69;5078700;27;51974;-76
2023/03/12 05:59:23;;;;;;;;;9.00;8.33;;;;;11.86;100.00;100851.47;5077557;27;47268;-76
2023/03/12 06:01:48;;;;;;;;;8.33;8.33;;;;;11.85;100.00;100847.13;5078929;27;45260;-76
2023/03/12 06:04:14;;;;;;;;;8.67;6.67;;;;;11.86;100.00;100854.94;5078577;27;45273;-76
2023/03/12 06:06:39;;;;;;;;;6.00;5.00;;;;;11.83;100.00;100851.84;5078642;28;45203;-77
2023/03/12 06:09:05;;;;;;;;;6.33;5.67;;;;;11.90;100.00;100849.25;5076507;28;55617;-76
2023/03/12 06:11:32;;;;;;;;;6.00;5.67;;;;;11.87;100.00;100848.63;5078780;27;45189;-77
2023/03/12 06:13:58;;;;;;;;;8.00;7.33;;;;;11.86;100.00;100843.47;5078850;27;45347;-76
2023/03/12 06:16:26;;;;;;;;;10.00;6.67;;;;;11.90;100.00;100854.59;5078682;27;45266;-76
2023/03/12 06:18:53;;;;;;;;;9.00;6.67;;;;;11.93;100.00;100865.72;5077462;28;47172;-77
2023/03/12 06:21:24;;;;;;;;;5.33;4.00;;;;;11.90;100.00;100851.94;5078426;28;45288;-77
2023/03/12 06:23:51;;;;;;;;;7.67;6.00;;;;;11.92;100.00;100866.75;5078542;28;45437;-76
2023/03/12 06:26:17;;;;;;;;;6.67;6.67;;;;;11.85;100.00;100865.78;5078472;28;45317;-76
2023/03/12 06:28:44;;;;;;;;;6.00;6.00;;;;;11.86;100.00;100867.44;5078092;27;45252;-76
2023/03/12 06:31:10;;;;;;;;;5.67;5.67;;;;;11.84;100.00;100864.97;5079052;27;45492;-76
2023/03/12 06:33:35;;;;;;;;;11.33;7.33;;;;;11.83;100.00;100851.84;5080593;28;45345;-76
2023/03/12 06:36:03;;;;;;;;;11.67;6.00;;;;;11.85;100.00;100857.78;5081634;28;45498;-77
2023/03/12 06:38:29;;;;;;;;;6.00;4.00;;;;;11.80;100.00;100855.69;5080933;27;46500;-76
2023/03/12 06:41:01;;;;;;;;;11.00;7.67;;;;;11.96;100.00;100864.53;5071787;28;45447;-77
2023/03/12 06:43:29;;;;;;;;;6.33;5.00;;;;;11.96;100.00;100857.38;5075107;27;45375;-77
2023/03/12 06:45:55;;;;;;;;;10.33;6.33;;;;;12.03;100.00;100861.97;5081822;27;45401;-76
2023/03/12 06:48:22;;;;;;;;;8.33;6.00;;;;;12.05;100.00;100866.09;5081527;27;46117;-76
2023/03/12 06:50:48;;;;;;;;;7.33;6.00;;;;;12.03;100.00;100862.78;5080900;27;45464;-77
2023/03/12 06:53:13;;;;;;;;;6.67;4.67;;;;;12.08;100.00;100865.78;5080352;28;45310;-76
2023/03/12 06:55:38;;;;;;;;;6.33;6.33;;;;;12.05;100.00;100862.59;5077626;28;46250;-77
2023/03/12 06:58:04;;;;;;;;;9.00;7.67;;;;;12.10;100.00;100873.59;5070246;28;45278;-76
2023/03/12 07:00:31;;;;;;;;;7.33;7.33;;;;;12.09;100.00;100888.75;5081295;28;45411;-76
2023/03/12 07:02:56;;;;;;;;;14.00;10.00;;;;;12.07;100.00;100885.44;5081881;27;45335;-75
2023/03/12 07:05:23;;;;;;;;;6.00;5.00;;;;;12.07;100.00;100889.94;5081136;28;45472;-77
2023/03/12 07:07:48;;;;;;;;;11.00;7.00;;;;;12.07;100.00;100897.94;5077727;28;46896;-77
2023/03/12 07:10:14;;;;;;;;;6.33;6.00;;;;;12.01;100.00;100880.81;5077855;27;45441;-76
2023/03/12 07:12:39;;;;;;;;;8.00;6.00;;;;;12.12;100.00;100890.22;5080605;28;45437;-76
2023/03/12 07:15:05;;;;;;;;;10.00;8.67;;;;;12.21;100.00;100894.47;5079477;27;46150;-76
2023/03/12 07:17:30;;;;;;;;;7.67;6.67;;;;;12.28;100.00;100896.41;5068791;28;48238;-76
2023/03/12 07:19:55;;;;;;;;;12.00;7.67;;;;;12.34;100.00;100909.00;5078107;28;45552;-76
2023/03/12 07:22:21;;;;;;;;;10.67;8.00;;;;;12.36;100.00;100905.13;5080666;27;45451;-76
2023/03/12 07:24:46;;;;;;;;;6.33;6.33;;;;;12.41;100.00;100909.94;5074184;28;45483;-76
2023/03/12 07:27:12;;;;;;;;;8.33;7.33;;;;;12.42;100.00;100903.59;5077536;28;49060;-76
2023/03/12 07:29:37;;;;;;;;;8.33;6.67;;;;;12.47;100.00;100909.19;5075462;28;45272;-76
2023/03/12 07:32:02;;;;;;;;;9.00;6.67;;;;;12.49;100.00;100907.16;5071732;27;45275;-76
2023/03/12 07:34:29;;;;;;;;;7.67;6.33;;;;;12.49;100.00;100912.50;5071805;28;45657;-76
2023/03/12 07:36:55;;;;;;;;;11.67;7.67;;;;;12.57;100.00;100914.25;5079860;28;46154;-77
2023/03/12 07:39:20;;;;;;;;;12.00;7.67;;;;;12.55;100.00;100915.47;5080266;28;45343;-77
2023/03/12 07:41:46;;;;;;;;;10.00;7.33;;;;;12.55;100.00;100912.78;5079975;27;45521;-76
2023/03/12 07:44:11;;;;;;;;;7.00;7.00;;;;;12.52;100.00;100915.81;5074573;28;53260;-76
2023/03/12 07:46:36;;;;;;;;;7.33;6.33;;;;;12.57;100.00;100942.78;5064643;28;47312;-76
2023/03/12 07:49:03;;;;;;;;;12.00;9.33;;;;;12.65;100.00;100953.34;5077552;28;45295;-75
2023/03/12 07:51:28;;;;;;;;;8.00;8.00;;;;;12.66;100.00;100962.97;5080202;27;45401;-76
2023/03/12 07:53:54;;;;;;;;;6.67;6.67;;;;;12.67;100.00;100977.16;5079312;27;45215;-76
2023/03/12 07:56:19;;;;;;;;;10.67;7.00;;;;;12.69;100.00;100970.63;5066822;28;47244;-76
2023/03/12 07:58:44;;;;;;;;;10.67;7.67;;;;;12.68;100.00;100947.66;5080441;27;45380;-76
2023/03/12 08:01:10;;;;;;;;;6.33;6.00;;;;;12.69;100.00;100946.63;5080145;27;45328;-77
2023/03/12 08:03:35;;;;;;;;;10.33;6.00;;;;;12.78;100.00;100955.34;5079974;27;56704;-75
2023/03/12 08:06:03;;;;;;;;;9.33;7.67;;;;;12.81;100.00;100940.84;5078810;28;48046;-77
2023/03/12 08:08:30;;;;;;;;;8.00;8.00;;;;;12.90;100.00;100936.25;5079671;27;45330;-76
2023/03/12 08:10:56;;;;;;;;;5.00;5.00;;;;;12.91;100.00;100940.56;5075295;27;45220;-77
2023/03/12 08:13:22;;;;;;;;;11.33;7.33;;;;;12.93;100.00;100922.53;5059268;28;45518;-76
2023/03/12 08:15:50;;;;;;;;;12.67;10.67;;;;;12.99;100.00;100922.59;5059443;28;45454;-76
2023/03/12 08:18:16;;;;;;;;;13.33;10.67;;;;;13.15;100.00;100934.09;5059938;28;45278;-76
2023/03/12 08:20:41;;;;;;;;;11.67;7.33;;;;;13.21;100.00;100938.69;5058624;28;45347;-76
2023/03/12 08:23:06;;;;;;;;;8.33;3.00;;;;;13.28;100.00;100935.25;5059565;28;49110;-76
2023/03/12 08:25:32;;;;;;;;;10.00;8.67;;;;;13.35;100.00;100938.84;5060288;28;45271;-78
2023/03/12 08:27:57;;;;;;;;;8.33;7.33;;;;;13.39;100.00;100937.47;5070784;28;45524;-76
2023/03/12 08:30:22;;;;;;;;;9.00;7.33;;;;;13.37;100.00;100932.31;5065741;28;45335;-76
2023/03/12 08:32:48;;;;;;;;;9.00;6.00;;;;;13.39;100.00;100946.28;5069929;27;45992;-78
2023/03/12 08:35:13;;;;;;;;;8.00;7.33;;;;;13.38;100.00;100941.97;5074520;28;47033;-76
2023/03/12 08:37:40;;;;;;;;;12.33;9.67;;;;;13.52;100.00;100960.03;5059812;28;45313;-77
2023/03/12 08:40:11;;;;;;;;;10.00;9.00;;;;;13.54;100.00;100952.63;5068927;28;45279;-77
2023/03/12 08:42:38;;;;;;;;;8.00;6.33;;;;;13.61;100.00;100965.03;5075674;28;46226;-78
2023/03/12 08:45:04;;;;;;;;;8.33;6.00;;;;;13.71;100.00;100966.59;5075806;27;45173;-79
2023/03/12 08:47:29;;;;;;;;;9.67;7.33;;;;;13.73;100.00;100964.53;5068620;28;45471;-77
2023/03/12 08:49:54;;;;;;;;;10.00;8.33;;;;;13.79;100.00;100973.63;5064242;28;45438;-78
2023/03/12 08:52:20;;;;;;;;;6.67;6.00;;;;;13.83;100.00;100977.59;5068932;27;45504;-78
2023/03/12 08:54:45;;;;;;;;;7.00;6.00;;;;;13.85;100.00;100984.41;5074223;28;49418;-76
2023/03/12 08:57:10;;;;;;;;;8.67;7.00;;;;;13.84;100.00;100981.91;5067740;28;48870;-79
2023/03/12 08:59:35;;;;;;;;;11.67;8.00;;;;;13.88;100.00;100980.50;5072018;28;45485;-76
2023/03/12 09:02:01;;;;;;;;;9.00;7.67;;;;;13.92;100.00;100976.44;5068790;27;45480;-76
2023/03/12 09:04:26;;;;;;;;;10.00;9.00;;;;;13.95;100.00;100977.91;5074243;28;48261;-78
2023/03/12 09:06:51;;;;;;;;;10.33;8.00;;;;;13.98;100.00;100983.69;5063040;28;55089;-76
2023/03/12 09:09:17;;;;;;;;;8.00;8.00;;;;;13.99;100.00;100987.19;5068479;28;47174;-76
2023/03/12 09:11:42;;;;;;;;;7.67;7.00;;;;;14.01;100.00;100985.97;5069647;28;50538;-77
2023/03/12 09:14:07;;;;;;;;;6.33;6.00;;;;;14.07;100.00;100991.59;5077949;27;46020;-77
2023/03/12 09:16:33;;;;;;;;;10.33;7.00;;;;;14.05;100.00;100974.91;5070207;27;45351;-77
2023/03/12 09:18:58;;;;;;;;;11.67;7.67;;;;;14.18;100.00;100979.53;5073410;27;45318;-77
2023/03/12 09:21:24;;;;;;;;;9.00;7.00;;;;;14.28;100.00;100982.75;5073483;27;45283;-77
2023/03/12 09:23:49;;;;;;;;;10.33;7.00;;;;;14.39;100.00;100989.38;5060711;28;47413;-76
2023/03/12 09:26:14;;;;;;;;;8.33;6.33;;;;;14.45;100.00;100988.63;5068616;28;45484;-76
2023/03/12 09:28:41;;;;;;;;;6.67;6.33;;;;;14.43;100.00;100984.50;5076802;28;45445;-76
2023/03/12 09:31:06;;;;;;;;;9.67;6.67;;;;;14.54;100.00;101005.34;5062558;27;45424;-79
2023/03/12 09:33:34;;;;;;;;;9.67;6.33;;;;;14.58;100.00;100995.09;5066179;28;45362;-76
2023/03/12 09:36:00;;;;;;;;;9.67;9.00;;;;;14.45;100.00;100995.78;5073240;28;45628;-78
2023/03/12 09:38:27;;;;;;;;;10.00;7.33;;;;;14.52;100.00;101005.53;5069885;27;45230;-76
2023/03/12 09:40:53;;;;;;;;;12.00;8.00;;;;;14.52;100.00;101010.06;5067894;28;45511;-79
2023/03/12 09:43:28;;;;;;;;;11.00;7.00;;;;;14.52;100.00;101004.72;5076275;28;45271;-78
2023/03/12 09:45:55;;;;;;;;;11.00;6.00;;;;;14.62;100.00;101007.88;5067871;28;45291;-77
2023/03/12 09:48:33;;;;;;;;;11.33;8.00;;;;;14.69;100.00;101007.09;5077048;28;45298;-76
2023/03/12 09:51:02;;;;;;;;;12.33;9.33;;;;;14.73;100.00;101003.81;5065989;28;45360;-76
2023/03/12 09:53:30;;;;;;;;;11.67;9.00;;;;;14.85;100.00;101014.84;5077804;28;45389;-77
2023/03/12 09:55:57;;;;;;;;;8.33;8.33;;;;;14.86;100.00;101000.47;5073906;28;45749;-77
2023/03/12 09:58:33;;;;;;;;;8.67;7.33;;;;;14.92;100.00;101004.19;5072098;28;45744;-76
2023/03/12 10:01:10;;;;;;;;;9.33;8.00;;;;;15.00;100.00;101016.59;5064092;27;45547;-77
2023/03/12 10:03:54;;;;;;;;;8.33;7.33;;;;;15.09;100.00;101006.56;5077325;28;47166;-76
2023/03/12 10:06:28;;;;;;;;;13.33;9.00;;;;;15.17;100.00;101006.38;5079814;27;45132;-76
2023/03/12 10:09:12;;;;;;;;;5.67;5.67;;;;;15.19;100.00;100996.31;5081672;27;45434;-76
2023/03/12 10:11:43;;;;;;;;;7.33;6.33;;;;;15.26;100.00;100991.78;5081871;27;45272;-76
2023/03/12 10:14:21;;;;;;;;;7.33;6.67;;;;;15.31;100.00;101004.59;5066407;28;46268;-77
2023/03/12 10:16:52;;;;;;;;;8.00;5.67;;;;;15.37;100.00;100987.72;5070063;28;45322;-76
2023/03/12 10:19:38;;;;;;;;;7.33;6.33;;;;;15.43;100.00;100994.13;5080413;28;45354;-76
2023/03/12 10:22:13;;;;;;;;;5.33;5.00;;;;;15.53;100.00;100989.22;5078819;28;47461;-78
2023/03/12 10:24:51;;;;;;;;;6.00;4.67;;;;;15.57;100.00;100988.81;5081056;28;46063;-77
2023/03/12 10:27:17;;;;;;;;;5.00;4.33;;;;;15.60;100.00;100983.91;5082008;27;45359;-77
2023/03/12 10:29:47;;;;;;;;;6.00;4.33;;;;;15.65;100.00;100983.25;5081323;27;45316;-77
2023/03/12 10:32:20;;;;;;;;;6.67;5.00;;;;;15.74;100.00;100973.19;5080115;28;45678;-78
2023/03/12 10:34:51;;;;;;;;;6.33;4.67;;;;;15.96;100.00;100973.91;5081422;27;45458;-76
2023/03/12 10:37:24;;;;;;;;;2.67;1.67;;;;;16.06;100.00;100980.69;5081357;28;45508;-77
2023/03/12 10:39:52;;;;;;;;;7.00;4.67;;;;;16.12;100.00;100985.22;5080115;28;45409;-76
2023/03/12 10:42:20;;;;;;;;;6.00;4.00;;;;;16.13;100.00;100985.03;5081611;28;45332;-76
2023/03/12 10:44:51;;;;;;;;;7.00;5.00;;;;;16.19;100.00;100988.72;5079870;27;48349;-76
2023/03/12 10:47:28;;;;;;;;;6.67;6.33;;;;;16.28;100.00;100984.81;5080039;28;45965;-76
2023/03/12 10:49:53;;;;;;;;;4.33;4.00;;;;;16.45;100.00;100983.56;5078900;28;45303;-77
2023/03/12 10:52:21;;;;;;;;;7.67;5.33;;;;;16.62;100.00;100995.53;5076497;28;45679;-77
2023/03/12 10:54:50;;;;;;;;;7.00;6.00;;;;;16.75;100.00;100986.63;5080102;28;47748;-77
2023/03/12 10:57:16;;;;;;;;;5.00;4.00;;;;;16.88;100.00;100996.50;5081271;27;45405;-77
2023/03/12 10:59:44;;;;;;;;;7.00;6.00;;;;;16.87;100.00;100988.66;5081159;27;45408;-77
2023/03/12 11:02:32;;;;;;;;;5.33;4.00;;;;;16.76;100.00;101001.69;5081469;28;45390;-75
2023/03/12 11:04:59;;;;;;;;;7.33;3.33;;;;;16.78;100.00;100994.28;5053468;28;48235;-76
2023/03/12 11:07:34;;;;;;;;;4.67;3.00;;;;;16.83;99.55;100987.44;5073982;28;45554;-76
2023/03/12 11:10:05;;;;;;;;;8.33;5.67;;;;;16.82;97.57;100991.16;5076475;28;45216;-76